LEPA/PMI METAR and TAF weather

Enter ICAO airport designator
Station Type Date Time Source
LEPA METAR 2019/02/16 17:00 UTC NOAA

LEPA 161700Z 27003KT 230V330 CAVOK 14/12 Q1027 NOSIG


Station Type Date Time Source
LEPA Decoded METAR 2019/02/16 17:00 UTC NOAA

Palma De Mallorca / Son San Juan, Spain (LEPA) 39-33N 002-44E 8M
Feb 16, 2019 - 12:00 PM EST / 2019.02.16 1700 UTC
Wind: from the W (270 degrees) at 3 MPH (3 KT) (direction variable):0
Visibility: greater than 7 mile(s):0
Temperature: 57 F (14 C)
Dew Point: 53 F (12 C)
Relative Humidity: 87%
Pressure (altimeter): 30.33 in. Hg (1027 hPa)
ob: LEPA 161700Z 27003KT 230V330 CAVOK 14/12 Q1027 NOSIG
cycle: 17

Station Type Date Time Source
LEPA TAF 2019/02/16 18:27 UTC NOAA

TAF LEPA 161700Z 1618/1718 04006KT 9999 FEW020 TX18/1712Z TN05/1706Z PROB40
TEMPO 1702/1709 0400 BCFG VV002
BECMG 1711/1713 22007KT
BECMG 1716/1718 06005KT


Example: see airport list